sensor_id;sensor_type;location;lat;lon;timestamp;temperature;humidity
2463;DHT22;1243;54.298;10.172;2022-10-17T00:01:06;11.60;99.90
2463;DHT22;1243;54.298;10.172;2022-10-17T00:03:33;11.60;99.90
2463;DHT22;1243;54.298;10.172;2022-10-17T00:06:04;11.60;99.90
2463;DHT22;1243;54.298;10.172;2022-10-17T00:08:30;11.50;99.90
2463;DHT22;1243;54.298;10.172;2022-10-17T00:10:58;11.50;99.90
2463;DHT22;1243;54.298;10.172;2022-10-17T00:13:24;11.40;99.90
2463;DHT22;1243;54.298;10.172;2022-10-17T00:15:50;11.40;99.90
2463;DHT22;1243;54.298;10.172;2022-10-17T00:18:16;11.40;99.90
2463;DHT22;1243;54.298;10.172;2022-10-17T00:20:42;11.40;99.90
2463;DHT22;1243;54.298;10.172;2022-10-17T00:23:07;11.40;99.90
2463;DHT22;1243;54.298;10.172;2022-10-17T00:25:33;11.30;99.90
2463;DHT22;1243;54.298;10.172;2022-10-17T00:27:58;11.30;99.90
2463;DHT22;1243;54.298;10.172;2022-10-17T00:30:24;11.30;99.90
2463;DHT22;1243;54.298;10.172;2022-10-17T00:32:50;11.30;99.90
2463;DHT22;1243;54.298;10.172;2022-10-17T00:35:16;11.30;99.90
2463;DHT22;1243;54.298;10.172;2022-10-17T00:37:41;11.30;99.90
2463;DHT22;1243;54.298;10.172;2022-10-17T00:40:07;11.20;99.90
2463;DHT22;1243;54.298;10.172;2022-10-17T00:42:34;11.10;99.90
2463;DHT22;1243;54.298;10.172;2022-10-17T00:45:10;11.10;99.90
2463;DHT22;1243;54.298;10.172;2022-10-17T00:47:37;11.10;99.90
2463;DHT22;1243;54.298;10.172;2022-10-17T00:50:04;11.10;99.90
2463;DHT22;1243;54.298;10.172;2022-10-17T00:52:31;11.10;99.90
2463;DHT22;1243;54.298;10.172;2022-10-17T00:55:03;11.10;99.90
2463;DHT22;1243;54.298;10.172;2022-10-17T00:57:31;11.10;99.90
2463;DHT22;1243;54.298;10.172;2022-10-17T00:59:58;11.10;99.90
2463;DHT22;1243;54.298;10.172;2022-10-17T01:02:25;11.10;99.90
2463;DHT22;1243;54.298;10.172;2022-10-17T01:04:52;11.10;99.90
2463;DHT22;1243;54.298;10.172;2022-10-17T01:07:20;11.10;99.90
2463;DHT22;1243;54.298;10.172;2022-10-17T01:09:46;11.10;99.90
2463;DHT22;1243;54.298;10.172;2022-10-17T01:20:57;11.50;99.90
2463;DHT22;1243;54.298;10.172;2022-10-17T01:26:29;11.60;99.90
2463;DHT22;1243;54.298;10.172;2022-10-17T01:32:31;11.70;99.90
2463;DHT22;1243;54.298;10.172;2022-10-17T01:34:38;11.70;99.90
2463;DHT22;1243;54.298;10.172;2022-10-17T01:37:12;11.80;99.90
2463;DHT22;1243;54.298;10.172;2022-10-17T01:39:42;11.80;99.90
2463;DHT22;1243;54.298;10.172;2022-10-17T01:44:57;11.90;99.90
2463;DHT22;1243;54.298;10.172;2022-10-17T01:47:26;11.90;99.90
2463;DHT22;1243;54.298;10.172;2022-10-17T01:49:56;12.00;99.90
2463;DHT22;1243;54.298;10.172;2022-10-17T01:52:36;12.00;99.90
2463;DHT22;1243;54.298;10.172;2022-10-17T01:55:13;12.00;99.90
2463;DHT22;1243;54.298;10.172;2022-10-17T01:57:52;12.00;99.90
2463;DHT22;1243;54.298;10.172;2022-10-17T02:00:24;12.00;99.90
2463;DHT22;1243;54.298;10.172;2022-10-17T02:02:59;12.00;99.90
2463;DHT22;1243;54.298;10.172;2022-10-17T02:05:46;12.00;99.90
2463;DHT22;1243;54.298;10.172;2022-10-17T02:08:12;12.00;99.90
2463;DHT22;1243;54.298;10.172;2022-10-17T02:10:46;12.10;99.90
2463;DHT22;1243;54.298;10.172;2022-10-17T02:25:20;12.20;99.90
2463;DHT22;1243;54.298;10.172;2022-10-17T02:28:05;12.20;99.90
2463;DHT22;1243;54.298;10.172;2022-10-17T02:30:51;12.20;99.90
2463;DHT22;1243;54.298;10.172;2022-10-17T02:33:22;12.20;99.90
2463;DHT22;1243;54.298;10.172;2022-10-17T02:35:52;12.20;99.90
2463;DHT22;1243;54.298;10.172;2022-10-17T02:38:19;12.30;99.90
2463;DHT22;1243;54.298;10.172;2022-10-17T02:40:47;12.30;99.90
2463;DHT22;1243;54.298;10.172;2022-10-17T02:43:14;12.30;99.90
2463;DHT22;1243;54.298;10.172;2022-10-17T02:45:40;12.30;99.90
2463;DHT22;1243;54.298;10.172;2022-10-17T02:48:18;12.40;99.90
2463;DHT22;1243;54.298;10.172;2022-10-17T02:56:21;12.50;99.90
2463;DHT22;1243;54.298;10.172;2022-10-17T02:58:50;12.50;99.90
2463;DHT22;1243;54.298;10.172;2022-10-17T03:01:18;12.50;99.90
2463;DHT22;1243;54.298;10.172;2022-10-17T03:03:44;12.50;99.90
2463;DHT22;1243;54.298;10.172;2022-10-17T03:06:10;12.50;99.90
2463;DHT22;1243;54.298;10.172;2022-10-17T03:08:36;12.60;99.90
2463;DHT22;1243;54.298;10.172;2022-10-17T03:11:01;12.60;99.90
2463;DHT22;1243;54.298;10.172;2022-10-17T03:13:28;12.60;99.90
2463;DHT22;1243;54.298;10.172;2022-10-17T03:15:55;12.70;99.90
2463;DHT22;1243;54.298;10.172;2022-10-17T03:18:21;12.70;99.90
2463;DHT22;1243;54.298;10.172;2022-10-17T03:20:46;12.70;99.90
2463;DHT22;1243;54.298;10.172;2022-10-17T03:23:12;12.60;99.90
2463;DHT22;1243;54.298;10.172;2022-10-17T03:25:38;12.70;99.90
2463;DHT22;1243;54.298;10.172;2022-10-17T03:28:03;12.70;99.90
2463;DHT22;1243;54.298;10.172;2022-10-17T03:30:30;12.60;99.90
2463;DHT22;1243;54.298;10.172;2022-10-17T03:32:59;12.60;99.90
2463;DHT22;1243;54.298;10.172;2022-10-17T03:35:26;12.60;99.90
2463;DHT22;1243;54.298;10.172;2022-10-17T03:37:53;12.60;99.90
2463;DHT22;1243;54.298;10.172;2022-10-17T03:40:19;12.60;99.90
2463;DHT22;1243;54.298;10.172;2022-10-17T03:42:45;12.70;99.90
2463;DHT22;1243;54.298;10.172;2022-10-17T03:45:10;12.70;99.90
2463;DHT22;1243;54.298;10.172;2022-10-17T03:47:36;12.60;99.90
2463;DHT22;1243;54.298;10.172;2022-10-17T03:50:02;12.70;99.90
2463;DHT22;1243;54.298;10.172;2022-10-17T03:52:28;12.70;99.90
2463;DHT22;1243;54.298;10.172;2022-10-17T03:54:53;12.70;99.90
2463;DHT22;1243;54.298;10.172;2022-10-17T03:57:19;12.70;99.90
2463;DHT22;1243;54.298;10.172;2022-10-17T03:59:45;12.80;99.90
2463;DHT22;1243;54.298;10.172;2022-10-17T04:02:10;12.80;99.90
2463;DHT22;1243;54.298;10.172;2022-10-17T04:04:36;12.80;99.90
2463;DHT22;1243;54.298;10.172;2022-10-17T04:07:01;12.80;99.90
2463;DHT22;1243;54.298;10.172;2022-10-17T04:09:27;12.70;99.90
2463;DHT22;1243;54.298;10.172;2022-10-17T04:11:53;12.80;99.90
2463;DHT22;1243;54.298;10.172;2022-10-17T04:14:19;12.80;99.90
2463;DHT22;1243;54.298;10.172;2022-10-17T04:16:45;12.80;99.90
2463;DHT22;1243;54.298;10.172;2022-10-17T04:19:12;12.80;99.90
2463;DHT22;1243;54.298;10.172;2022-10-17T04:21:38;12.80;99.90
2463;DHT22;1243;54.298;10.172;2022-10-17T04:24:04;12.80;99.90
2463;DHT22;1243;54.298;10.172;2022-10-17T04:26:30;12.70;99.90
2463;DHT22;1243;54.298;10.172;2022-10-17T04:28:55;12.70;99.90
2463;DHT22;1243;54.298;10.172;2022-10-17T04:31:21;12.70;99.90
2463;DHT22;1243;54.298;10.172;2022-10-17T04:33:47;12.70;99.90
2463;DHT22;1243;54.298;10.172;2022-10-17T04:36:16;12.70;99.90
2463;DHT22;1243;54.298;10.172;2022-10-17T04:38:42;12.70;99.90
2463;DHT22;1243;54.298;10.172;2022-10-17T04:41:11;12.70;99.90
2463;DHT22;1243;54.298;10.172;2022-10-17T04:43:37;12.80;99.90
2463;DHT22;1243;54.298;10.172;2022-10-17T04:46:09;12.80;99.90
2463;DHT22;1243;54.298;10.172;2022-10-17T04:48:36;12.80;99.90
2463;DHT22;1243;54.298;10.172;2022-10-17T04:51:04;12.90;99.90
2463;DHT22;1243;54.298;10.172;2022-10-17T04:53:32;12.90;99.90
2463;DHT22;1243;54.298;10.172;2022-10-17T04:55:58;12.90;99.90
2463;DHT22;1243;54.298;10.172;2022-10-17T04:58:24;12.90;99.90
2463;DHT22;1243;54.298;10.172;2022-10-17T05:00:50;12.90;99.90
2463;DHT22;1243;54.298;10.172;2022-10-17T05:03:16;12.90;99.90
2463;DHT22;1243;54.298;10.172;2022-10-17T05:05:42;12.90;99.90
2463;DHT22;1243;54.298;10.172;2022-10-17T05:08:09;12.90;99.90
2463;DHT22;1243;54.298;10.172;2022-10-17T05:10:37;12.90;99.90
2463;DHT22;1243;54.298;10.172;2022-10-17T05:13:03;12.90;99.90
2463;DHT22;1243;54.298;10.172;2022-10-17T05:15:29;12.90;99.90
2463;DHT22;1243;54.298;10.172;2022-10-17T05:17:55;13.00;99.90
2463;DHT22;1243;54.298;10.172;2022-10-17T05:20:21;13.00;99.90
2463;DHT22;1243;54.298;10.172;2022-10-17T05:22:47;13.00;99.90
2463;DHT22;1243;54.298;10.172;2022-10-17T05:25:13;13.00;99.90
2463;DHT22;1243;54.298;10.172;2022-10-17T05:27:38;13.00;99.90
2463;DHT22;1243;54.298;10.172;2022-10-17T05:30:05;13.00;99.90
2463;DHT22;1243;54.298;10.172;2022-10-17T05:32:30;13.00;99.90
2463;DHT22;1243;54.298;10.172;2022-10-17T05:34:56;13.00;99.90
2463;DHT22;1243;54.298;10.172;2022-10-17T05:37:22;13.00;99.90
2463;DHT22;1243;54.298;10.172;2022-10-17T05:39:47;13.00;99.90
2463;DHT22;1243;54.298;10.172;2022-10-17T05:42:13;12.90;99.90
2463;DHT22;1243;54.298;10.172;2022-10-17T05:44:39;12.90;99.90
2463;DHT22;1243;54.298;10.172;2022-10-17T05:47:09;13.00;99.90
2463;DHT22;1243;54.298;10.172;2022-10-17T05:49:35;13.00;99.90
2463;DHT22;1243;54.298;10.172;2022-10-17T05:52:01;13.00;99.90
2463;DHT22;1243;54.298;10.172;2022-10-17T05:54:26;13.00;99.90
2463;DHT22;1243;54.298;10.172;2022-10-17T05:56:53;13.00;99.90
2463;DHT22;1243;54.298;10.172;2022-10-17T05:59:19;13.00;99.90
2463;DHT22;1243;54.298;10.172;2022-10-17T06:01:45;13.00;99.90
2463;DHT22;1243;54.298;10.172;2022-10-17T06:04:11;13.00;99.90
2463;DHT22;1243;54.298;10.172;2022-10-17T06:06:37;13.00;99.90
2463;DHT22;1243;54.298;10.172;2022-10-17T06:09:03;13.00;99.90
2463;DHT22;1243;54.298;10.172;2022-10-17T06:11:29;13.00;99.90
2463;DHT22;1243;54.298;10.172;2022-10-17T06:13:54;13.00;99.90
2463;DHT22;1243;54.298;10.172;2022-10-17T06:16:21;13.10;99.90
2463;DHT22;1243;54.298;10.172;2022-10-17T06:18:47;13.10;99.90
2463;DHT22;1243;54.298;10.172;2022-10-17T06:21:15;13.10;99.90
2463;DHT22;1243;54.298;10.172;2022-10-17T06:23:41;13.10;99.90
2463;DHT22;1243;54.298;10.172;2022-10-17T06:26:08;13.10;99.90
2463;DHT22;1243;54.298;10.172;2022-10-17T06:28:34;13.10;99.90
2463;DHT22;1243;54.298;10.172;2022-10-17T06:31:06;13.10;99.90
2463;DHT22;1243;54.298;10.172;2022-10-17T06:33:33;13.10;99.90
2463;DHT22;1243;54.298;10.172;2022-10-17T06:35:58;13.10;99.90
2463;DHT22;1243;54.298;10.172;2022-10-17T06:38:24;13.20;99.90
2463;DHT22;1243;54.298;10.172;2022-10-17T06:40:50;13.20;99.90
2463;DHT22;1243;54.298;10.172;2022-10-17T06:43:16;13.20;99.90
2463;DHT22;1243;54.298;10.172;2022-10-17T06:45:41;13.20;99.90
2463;DHT22;1243;54.298;10.172;2022-10-17T06:48:07;13.20;99.90
2463;DHT22;1243;54.298;10.172;2022-10-17T06:50:34;13.20;99.90
2463;DHT22;1243;54.298;10.172;2022-10-17T06:52:59;13.20;99.90
2463;DHT22;1243;54.298;10.172;2022-10-17T06:55:25;13.30;99.90
2463;DHT22;1243;54.298;10.172;2022-10-17T06:57:54;13.30;99.90
2463;DHT22;1243;54.298;10.172;2022-10-17T07:00:20;13.30;99.90
2463;DHT22;1243;54.298;10.172;2022-10-17T07:02:47;13.40;99.90
2463;DHT22;1243;54.298;10.172;2022-10-17T07:05:13;13.40;99.90
2463;DHT22;1243;54.298;10.172;2022-10-17T07:07:39;13.50;99.90
2463;DHT22;1243;54.298;10.172;2022-10-17T07:10:05;13.60;99.90
2463;DHT22;1243;54.298;10.172;2022-10-17T07:12:33;13.70;99.90
2463;DHT22;1243;54.298;10.172;2022-10-17T07:15:00;13.70;99.90
2463;DHT22;1243;54.298;10.172;2022-10-17T07:17:25;13.70;99.90
2463;DHT22;1243;54.298;10.172;2022-10-17T07:19:51;13.70;99.90
2463;DHT22;1243;54.298;10.172;2022-10-17T07:22:17;13.80;99.90
2463;DHT22;1243;54.298;10.172;2022-10-17T07:24:43;13.90;99.90
2463;DHT22;1243;54.298;10.172;2022-10-17T07:27:08;13.90;99.90
2463;DHT22;1243;54.298;10.172;2022-10-17T07:29:34;13.90;99.90
2463;DHT22;1243;54.298;10.172;2022-10-17T07:32:00;14.00;99.90
2463;DHT22;1243;54.298;10.172;2022-10-17T07:34:28;14.10;99.90
2463;DHT22;1243;54.298;10.172;2022-10-17T07:36:55;14.20;99.90
2463;DHT22;1243;54.298;10.172;2022-10-17T07:39:21;14.30;99.90
2463;DHT22;1243;54.298;10.172;2022-10-17T07:41:48;14.30;99.90
2463;DHT22;1243;54.298;10.172;2022-10-17T07:44:15;14.40;99.90
2463;DHT22;1243;54.298;10.172;2022-10-17T07:46:40;14.40;99.90
2463;DHT22;1243;54.298;10.172;2022-10-17T07:49:06;14.50;99.90
2463;DHT22;1243;54.298;10.172;2022-10-17T07:51:32;14.60;99.90
2463;DHT22;1243;54.298;10.172;2022-10-17T07:53:58;14.70;99.90
2463;DHT22;1243;54.298;10.172;2022-10-17T07:56:23;14.80;99.90
2463;DHT22;1243;54.298;10.172;2022-10-17T07:58:50;14.90;99.90
2463;DHT22;1243;54.298;10.172;2022-10-17T08:01:16;15.00;99.90
2463;DHT22;1243;54.298;10.172;2022-10-17T08:03:46;15.10;99.90
2463;DHT22;1243;54.298;10.172;2022-10-17T08:06:13;15.10;99.90
2463;DHT22;1243;54.298;10.172;2022-10-17T08:08:39;15.20;99.90
2463;DHT22;1243;54.298;10.172;2022-10-17T08:11:10;15.20;99.90
2463;DHT22;1243;54.298;10.172;2022-10-17T08:13:37;15.20;99.90
2463;DHT22;1243;54.298;10.172;2022-10-17T08:16:05;15.30;99.90
2463;DHT22;1243;54.298;10.172;2022-10-17T08:18:35;15.40;99.90
2463;DHT22;1243;54.298;10.172;2022-10-17T08:21:03;15.50;99.90
2463;DHT22;1243;54.298;10.172;2022-10-17T08:23:31;15.60;99.90
2463;DHT22;1243;54.298;10.172;2022-10-17T08:26:00;15.70;99.90
2463;DHT22;1243;54.298;10.172;2022-10-17T08:28:27;15.60;99.90
2463;DHT22;1243;54.298;10.172;2022-10-17T08:30:52;15.70;99.90
2463;DHT22;1243;54.298;10.172;2022-10-17T08:33:18;15.70;99.90
2463;DHT22;1243;54.298;10.172;2022-10-17T08:35:44;15.70;99.90
2463;DHT22;1243;54.298;10.172;2022-10-17T08:38:10;15.70;99.90
2463;DHT22;1243;54.298;10.172;2022-10-17T08:40:35;15.80;99.90
2463;DHT22;1243;54.298;10.172;2022-10-17T08:43:24;15.80;99.90
2463;DHT22;1243;54.298;10.172;2022-10-17T08:45:56;15.80;99.90
2463;DHT22;1243;54.298;10.172;2022-10-17T08:48:26;15.80;99.90
2463;DHT22;1243;54.298;10.172;2022-10-17T08:50:59;15.90;99.90
2463;DHT22;1243;54.298;10.172;2022-10-17T08:53:38;15.90;99.90
2463;DHT22;1243;54.298;10.172;2022-10-17T08:56:19;15.90;99.90
2463;DHT22;1243;54.298;10.172;2022-10-17T08:58:45;15.90;99.90
2463;DHT22;1243;54.298;10.172;2022-10-17T09:01:45;15.90;99.90
2463;DHT22;1243;54.298;10.172;2022-10-17T09:07:18;15.90;99.90
2463;DHT22;1243;54.298;10.172;2022-10-17T09:18:26;16.20;99.90
2463;DHT22;1243;54.298;10.172;2022-10-17T09:20:59;16.20;99.90
2463;DHT22;1243;54.298;10.172;2022-10-17T09:23:56;16.20;99.90
2463;DHT22;1243;54.298;10.172;2022-10-17T09:26:25;16.30;99.90
2463;DHT22;1243;54.298;10.172;2022-10-17T09:28:56;16.50;99.90
2463;DHT22;1243;54.298;10.172;2022-10-17T09:31:28;16.70;99.90
2463;DHT22;1243;54.298;10.172;2022-10-17T09:33:56;17.00;99.90
2463;DHT22;1243;54.298;10.172;2022-10-17T09:36:30;17.20;99.90
2463;DHT22;1243;54.298;10.172;2022-10-17T09:39:11;17.50;99.90
2463;DHT22;1243;54.298;10.172;2022-10-17T09:41:51;17.70;99.90
2463;DHT22;1243;54.298;10.172;2022-10-17T09:44:35;17.80;94.90
2463;DHT22;1243;54.298;10.172;2022-10-17T09:47:23;17.90;99.90
2463;DHT22;1243;54.298;10.172;2022-10-17T09:49:51;17.90;99.90
2463;DHT22;1243;54.298;10.172;2022-10-17T09:52:27;18.10;99.90
2463;DHT22;1243;54.298;10.172;2022-10-17T09:54:58;18.20;99.90
2463;DHT22;1243;54.298;10.172;2022-10-17T09:57:25;18.50;99.90
2463;DHT22;1243;54.298;10.172;2022-10-17T10:00:00;18.80;99.90
2463;DHT22;1243;54.298;10.172;2022-10-17T10:02:28;18.90;94.70
2463;DHT22;1243;54.298;10.172;2022-10-17T10:05:03;18.90;82.10
2463;DHT22;1243;54.298;10.172;2022-10-17T10:07:33;19.10;74.60
2463;DHT22;1243;54.298;10.172;2022-10-17T10:09:59;19.10;64.40
2463;DHT22;1243;54.298;10.172;2022-10-17T10:12:33;19.00;62.70
2463;DHT22;1243;54.298;10.172;2022-10-17T10:14:59;18.90;60.50
2463;DHT22;1243;54.298;10.172;2022-10-17T10:19:59;19.00;64.10
2463;DHT22;1243;54.298;10.172;2022-10-17T10:22:25;19.40;68.40
2463;DHT22;1243;54.298;10.172;2022-10-17T10:27:35;19.50;49.50
2463;DHT22;1243;54.298;10.172;2022-10-17T10:30:01;19.60;48.90
2463;DHT22;1243;54.298;10.172;2022-10-17T10:35:05;19.40;27.80
2463;DHT22;1243;54.298;10.172;2022-10-17T10:37:42;19.40;34.10
2463;DHT22;1243;54.298;10.172;2022-10-17T10:43:20;19.30;31.80
2463;DHT22;1243;54.298;10.172;2022-10-17T10:45:46;19.30;43.70
2463;DHT22;1243;54.298;10.172;2022-10-17T10:48:26;19.30;43.00
2463;DHT22;1243;54.298;10.172;2022-10-17T10:50:58;19.40;43.50
2463;DHT22;1243;54.298;10.172;2022-10-17T11:06:43;19.70;33.30
2463;DHT22;1243;54.298;10.172;2022-10-17T11:11:45;19.80;23.80
2463;DHT22;1243;54.298;10.172;2022-10-17T11:14:20;19.80;57.70
2463;DHT22;1243;54.298;10.172;2022-10-17T11:22:28;19.80;57.00
2463;DHT22;1243;54.298;10.172;2022-10-17T11:27:48;19.70;55.60
2463;DHT22;1243;54.298;10.172;2022-10-17T11:30:14;19.70;58.20
2463;DHT22;1243;54.298;10.172;2022-10-17T11:32:56;19.60;61.00
2463;DHT22;1243;54.298;10.172;2022-10-17T11:35:25;19.60;65.80
2463;DHT22;1243;54.298;10.172;2022-10-17T11:40:52;19.70;74.00
2463;DHT22;1243;54.298;10.172;2022-10-17T11:43:29;19.70;67.70
2463;DHT22;1243;54.298;10.172;2022-10-17T11:46:23;19.80;62.00
2463;DHT22;1243;54.298;10.172;2022-10-17T11:55:00;19.70;60.70
2463;DHT22;1243;54.298;10.172;2022-10-17T12:00:57;19.70;65.20
2463;DHT22;1243;54.298;10.172;2022-10-17T12:12:30;20.00;80.10
2463;DHT22;1243;54.298;10.172;2022-10-17T12:17:45;20.30;62.70
2463;DHT22;1243;54.298;10.172;2022-10-17T12:25:46;20.30;68.40
2463;DHT22;1243;54.298;10.172;2022-10-17T12:28:28;20.30;58.00
2463;DHT22;1243;54.298;10.172;2022-10-17T12:31:01;20.20;42.00
2463;DHT22;1243;54.298;10.172;2022-10-17T12:33:36;20.00;75.10
2463;DHT22;1243;54.298;10.172;2022-10-17T12:41:13;19.80;73.80
2463;DHT22;1243;54.298;10.172;2022-10-17T12:43:51;19.60;80.80
2463;DHT22;1243;54.298;10.172;2022-10-17T12:47:26;19.60;91.90
2463;DHT22;1243;54.298;10.172;2022-10-17T12:49:49;19.50;94.70
2463;DHT22;1243;54.298;10.172;2022-10-17T12:52:22;19.40;95.40
2463;DHT22;1243;54.298;10.172;2022-10-17T13:03:17;19.30;95.40
2463;DHT22;1243;54.298;10.172;2022-10-17T13:05:50;19.10;95.50
2463;DHT22;1243;54.298;10.172;2022-10-17T13:08:30;19.10;99.90
2463;DHT22;1243;54.298;10.172;2022-10-17T13:10:57;18.90;99.90
2463;DHT22;1243;54.298;10.172;2022-10-17T13:16:03;18.60;99.90
2463;DHT22;1243;54.298;10.172;2022-10-17T13:18:29;18.50;99.90
2463;DHT22;1243;54.298;10.172;2022-10-17T13:21:04;18.40;99.90
2463;DHT22;1243;54.298;10.172;2022-10-17T13:23:35;18.30;99.90
2463;DHT22;1243;54.298;10.172;2022-10-17T13:28:35;18.30;99.90
2463;DHT22;1243;54.298;10.172;2022-10-17T13:31:00;18.30;99.90
2463;DHT22;1243;54.298;10.172;2022-10-17T13:33:34;18.20;99.90
2463;DHT22;1243;54.298;10.172;2022-10-17T13:36:03;18.20;99.90
2463;DHT22;1243;54.298;10.172;2022-10-17T13:38:32;18.10;99.90
2463;DHT22;1243;54.298;10.172;2022-10-17T13:41:00;18.10;99.90
2463;DHT22;1243;54.298;10.172;2022-10-17T13:43:26;18.10;99.90
2463;DHT22;1243;54.298;10.172;2022-10-17T13:45:55;18.10;99.90
2463;DHT22;1243;54.298;10.172;2022-10-17T13:48:26;18.00;99.90
2463;DHT22;1243;54.298;10.172;2022-10-17T13:50:55;18.00;99.90
2463;DHT22;1243;54.298;10.172;2022-10-17T13:53:36;18.00;99.90
2463;DHT22;1243;54.298;10.172;2022-10-17T13:56:19;18.00;99.90
2463;DHT22;1243;54.298;10.172;2022-10-17T13:58:48;18.00;99.90
2463;DHT22;1243;54.298;10.172;2022-10-17T14:01:15;17.90;99.90
2463;DHT22;1243;54.298;10.172;2022-10-17T14:03:45;17.90;99.90
2463;DHT22;1243;54.298;10.172;2022-10-17T14:06:25;18.00;1.00
2463;DHT22;1243;54.298;10.172;2022-10-17T14:08:59;18.00;1.00
2463;DHT22;1243;54.298;10.172;2022-10-17T14:11:33;18.10;1.00
2463;DHT22;1243;54.298;10.172;2022-10-17T14:14:01;18.00;1.00
2463;DHT22;1243;54.298;10.172;2022-10-17T14:16:37;18.00;1.00
2463;DHT22;1243;54.298;10.172;2022-10-17T14:19:05;18.10;1.00
2463;DHT22;1243;54.298;10.172;2022-10-17T14:21:37;18.10;1.00
2463;DHT22;1243;54.298;10.172;2022-10-17T14:24:26;18.00;1.00
2463;DHT22;1243;54.298;10.172;2022-10-17T14:26:54;18.00;1.00
2463;DHT22;1243;54.298;10.172;2022-10-17T14:29:28;18.00;1.00
2463;DHT22;1243;54.298;10.172;2022-10-17T14:32:03;18.00;1.00
2463;DHT22;1243;54.298;10.172;2022-10-17T14:34:33;18.00;1.00
2463;DHT22;1243;54.298;10.172;2022-10-17T14:36:59;17.90;1.00
2463;DHT22;1243;54.298;10.172;2022-10-17T14:39:26;17.90;1.00
2463;DHT22;1243;54.298;10.172;2022-10-17T14:41:52;17.80;1.00
2463;DHT22;1243;54.298;10.172;2022-10-17T14:44:30;17.80;1.00
2463;DHT22;1243;54.298;10.172;2022-10-17T14:47:02;17.80;1.00
2463;DHT22;1243;54.298;10.172;2022-10-17T14:49:37;17.70;1.00
2463;DHT22;1243;54.298;10.172;2022-10-17T14:54:43;17.70;1.00
2463;DHT22;1243;54.298;10.172;2022-10-17T14:57:24;17.60;1.00
2463;DHT22;1243;54.298;10.172;2022-10-17T14:59:50;17.60;15.20
2463;DHT22;1243;54.298;10.172;2022-10-17T15:02:16;17.50;40.60
2463;DHT22;1243;54.298;10.172;2022-10-17T15:04:42;17.50;70.80
2463;DHT22;1243;54.298;10.172;2022-10-17T15:07:15;17.50;95.70
2463;DHT22;1243;54.298;10.172;2022-10-17T15:09:42;17.40;98.30
2463;DHT22;1243;54.298;10.172;2022-10-17T15:12:14;17.40;99.70
2463;DHT22;1243;54.298;10.172;2022-10-17T15:14:40;17.40;99.90
2463;DHT22;1243;54.298;10.172;2022-10-17T15:17:17;17.40;99.90
2463;DHT22;1243;54.298;10.172;2022-10-17T15:19:45;17.40;99.90
2463;DHT22;1243;54.298;10.172;2022-10-17T15:22:11;17.30;99.90
2463;DHT22;1243;54.298;10.172;2022-10-17T15:24:37;17.30;99.90
2463;DHT22;1243;54.298;10.172;2022-10-17T15:27:08;17.20;99.90
2463;DHT22;1243;54.298;10.172;2022-10-17T15:29:37;17.30;99.90
2463;DHT22;1243;54.298;10.172;2022-10-17T15:32:03;17.20;99.90
2463;DHT22;1243;54.298;10.172;2022-10-17T15:34:29;17.20;99.90
2463;DHT22;1243;54.298;10.172;2022-10-17T15:36:54;17.20;99.90
2463;DHT22;1243;54.298;10.172;2022-10-17T15:39:20;17.20;99.90
2463;DHT22;1243;54.298;10.172;2022-10-17T15:41:46;17.20;99.90
2463;DHT22;1243;54.298;10.172;2022-10-17T15:44:12;17.20;99.90
2463;DHT22;1243;54.298;10.172;2022-10-17T15:46:39;17.20;99.90
2463;DHT22;1243;54.298;10.172;2022-10-17T15:49:15;17.20;99.90
2463;DHT22;1243;54.298;10.172;2022-10-17T15:51:42;17.20;99.90
2463;DHT22;1243;54.298;10.172;2022-10-17T15:54:07;17.20;99.90
2463;DHT22;1243;54.298;10.172;2022-10-17T15:56:39;17.20;99.90
2463;DHT22;1243;54.298;10.172;2022-10-17T15:59:12;17.10;99.90
2463;DHT22;1243;54.298;10.172;2022-10-17T16:01:38;17.00;99.90
2463;DHT22;1243;54.298;10.172;2022-10-17T16:04:04;16.80;99.90
2463;DHT22;1243;54.298;10.172;2022-10-17T16:06:30;16.80;99.90
2463;DHT22;1243;54.298;10.172;2022-10-17T16:08:56;16.70;99.90
2463;DHT22;1243;54.298;10.172;2022-10-17T16:11:39;16.70;99.90
2463;DHT22;1243;54.298;10.172;2022-10-17T16:14:13;16.60;99.90
2463;DHT22;1243;54.298;10.172;2022-10-17T16:16:39;16.60;99.90
2463;DHT22;1243;54.298;10.172;2022-10-17T16:19:05;16.60;99.90
2463;DHT22;1243;54.298;10.172;2022-10-17T16:21:35;16.60;99.90
2463;DHT22;1243;54.298;10.172;2022-10-17T16:24:01;16.60;99.90
2463;DHT22;1243;54.298;10.172;2022-10-17T16:26:28;16.50;99.90
2463;DHT22;1243;54.298;10.172;2022-10-17T16:28:53;16.50;99.90
2463;DHT22;1243;54.298;10.172;2022-10-17T16:31:27;16.50;99.90
2463;DHT22;1243;54.298;10.172;2022-10-17T16:33:55;16.50;99.90
2463;DHT22;1243;54.298;10.172;2022-10-17T16:36:22;16.50;99.90
2463;DHT22;1243;54.298;10.172;2022-10-17T16:38:47;16.50;99.90
2463;DHT22;1243;54.298;10.172;2022-10-17T16:41:40;16.50;99.90
2463;DHT22;1243;54.298;10.172;2022-10-17T16:44:07;16.40;99.90
2463;DHT22;1243;54.298;10.172;2022-10-17T16:46:36;16.40;99.90
2463;DHT22;1243;54.298;10.172;2022-10-17T16:49:06;16.40;99.90
2463;DHT22;1243;54.298;10.172;2022-10-17T16:51:32;16.40;99.90
2463;DHT22;1243;54.298;10.172;2022-10-17T16:54:00;16.40;99.90
2463;DHT22;1243;54.298;10.172;2022-10-17T16:56:27;16.40;99.90
2463;DHT22;1243;54.298;10.172;2022-10-17T16:58:57;16.30;99.90
2463;DHT22;1243;54.298;10.172;2022-10-17T17:01:24;16.30;99.90
2463;DHT22;1243;54.298;10.172;2022-10-17T17:03:51;16.20;99.90
2463;DHT22;1243;54.298;10.172;2022-10-17T17:06:27;16.20;99.90
2463;DHT22;1243;54.298;10.172;2022-10-17T17:08:53;16.30;99.90
2463;DHT22;1243;54.298;10.172;2022-10-17T17:11:21;16.20;99.90
2463;DHT22;1243;54.298;10.172;2022-10-17T17:13:47;16.30;99.90
2463;DHT22;1243;54.298;10.172;2022-10-17T17:16:17;16.20;99.90
2463;DHT22;1243;54.298;10.172;2022-10-17T17:18:44;16.20;99.90
2463;DHT22;1243;54.298;10.172;2022-10-17T17:21:11;16.20;99.90
2463;DHT22;1243;54.298;10.172;2022-10-17T17:23:38;16.20;99.90
2463;DHT22;1243;54.298;10.172;2022-10-17T17:26:07;16.10;99.90
2463;DHT22;1243;54.298;10.172;2022-10-17T17:28:34;16.10;99.90
2463;DHT22;1243;54.298;10.172;2022-10-17T17:31:00;16.10;99.90
2463;DHT22;1243;54.298;10.172;2022-10-17T17:33:26;16.00;99.90
2463;DHT22;1243;54.298;10.172;2022-10-17T17:35:59;16.00;99.90
2463;DHT22;1243;54.298;10.172;2022-10-17T17:38:27;16.00;99.90
2463;DHT22;1243;54.298;10.172;2022-10-17T17:40:53;16.10;99.90
2463;DHT22;1243;54.298;10.172;2022-10-17T17:43:19;16.00;99.90
2463;DHT22;1243;54.298;10.172;2022-10-17T17:45:45;16.00;99.90
2463;DHT22;1243;54.298;10.172;2022-10-17T17:48:11;16.00;99.90
2463;DHT22;1243;54.298;10.172;2022-10-17T17:50:38;15.90;99.90
2463;DHT22;1243;54.298;10.172;2022-10-17T17:53:05;15.90;99.90
2463;DHT22;1243;54.298;10.172;2022-10-17T17:55:32;15.80;99.90
2463;DHT22;1243;54.298;10.172;2022-10-17T17:57:57;15.90;99.90
2463;DHT22;1243;54.298;10.172;2022-10-17T18:00:23;15.80;99.90
2463;DHT22;1243;54.298;10.172;2022-10-17T18:02:49;15.90;99.90
2463;DHT22;1243;54.298;10.172;2022-10-17T18:05:15;15.90;99.90
2463;DHT22;1243;54.298;10.172;2022-10-17T18:07:40;15.90;99.90
2463;DHT22;1243;54.298;10.172;2022-10-17T18:10:07;15.90;99.90
2463;DHT22;1243;54.298;10.172;2022-10-17T18:12:33;15.90;99.90